createdAt,value
2022-08-07T00:00:59.811Z,59.60
2022-08-07T00:05:14.371Z,59.50
2022-08-07T00:09:35.422Z,59.50
2022-08-07T00:13:50.376Z,59.90
2022-08-07T00:18:04.659Z,60.10
2022-08-07T00:22:24.611Z,60.00
2022-08-07T00:26:59.417Z,59.80
2022-08-07T00:31:37.934Z,59.90
2022-08-07T00:35:55.476Z,60.00
2022-08-07T00:40:10.947Z,59.80
2022-08-07T00:44:29.150Z,59.30
2022-08-07T00:48:52.957Z,58.80
2022-08-07T00:53:09.239Z,58.90
2022-08-07T00:57:25.967Z,58.80
2022-08-07T01:01:44.065Z,58.90
2022-08-07T01:05:59.603Z,58.80
2022-08-07T01:10:15.797Z,58.60
2022-08-07T01:14:32.517Z,59.10
2022-08-07T01:18:53.694Z,59.10
2022-08-07T01:23:12.978Z,59.20
2022-08-07T01:27:32.299Z,59.40
2022-08-07T01:31:48.753Z,59.70
2022-08-07T01:36:07.594Z,59.90
2022-08-07T01:40:30.250Z,60.20
2022-08-07T01:44:48.049Z,60.30
2022-08-07T01:49:04.288Z,60.70
2022-08-07T01:53:21.737Z,60.80
2022-08-07T01:58:06.699Z,60.00
2022-08-07T02:03:11.717Z,59.80
2022-08-07T02:07:22.028Z,59.70
2022-08-07T02:12:04.213Z,59.90
2022-08-07T02:16:29.938Z,59.60
2022-08-07T02:20:55.828Z,59.80
2022-08-07T02:25:13.828Z,60.00
2022-08-07T02:29:36.743Z,59.90
2022-08-07T02:34:11.442Z,59.80
2022-08-07T02:38:34.915Z,59.70
2022-08-07T02:42:49.611Z,59.90
2022-08-07T02:47:07.138Z,59.40
2022-08-07T02:51:41.679Z,59.50
2022-08-07T02:56:02.627Z,59.00
2022-08-07T03:00:18.522Z,59.00
2022-08-07T03:04:32.485Z,58.90
2022-08-07T03:08:49.058Z,58.90
2022-08-07T03:13:08.953Z,59.00
2022-08-07T03:17:24.946Z,59.00
2022-08-07T03:21:39.294Z,58.80
2022-08-07T03:26:08.178Z,58.70
2022-08-07T03:30:38.043Z,58.50
2022-08-07T03:35:12.960Z,58.60
2022-08-07T03:40:00.141Z,58.70
2022-08-07T03:44:08.654Z,58.60
2022-08-07T03:48:25.867Z,58.90
2022-08-07T03:52:39.765Z,58.90
2022-08-07T03:57:03.408Z,59.00
2022-08-07T04:01:20.989Z,59.10
2022-08-07T04:05:40.348Z,58.60
2022-08-07T04:09:58.173Z,58.70
2022-08-07T04:14:37.834Z,58.70
2022-08-07T04:18:59.218Z,58.30
2022-08-07T04:23:19.255Z,58.50
2022-08-07T04:27:44.118Z,58.60
2022-08-07T04:32:03.367Z,58.70
2022-08-07T04:36:26.519Z,58.50
2022-08-07T04:40:51.410Z,58.90
2022-08-07T04:45:08.522Z,59.10
2022-08-07T04:49:37.742Z,58.90
2022-08-07T04:54:06.288Z,59.00
2022-08-07T04:58:49.632Z,59.10
2022-08-07T05:03:17.273Z,58.90
2022-08-07T05:07:58.200Z,59.20
2022-08-07T05:12:26.909Z,58.50
2022-08-07T05:16:53.046Z,58.30
2022-08-07T05:21:11.473Z,58.30
2022-08-07T05:25:54.385Z,58.20
2022-08-07T05:30:06.233Z,57.70
2022-08-07T05:34:27.681Z,57.90
2022-08-07T05:39:00.643Z,58.20
2022-08-07T05:43:17.526Z,58.20
2022-08-07T05:48:02.094Z,57.80
2022-08-07T05:52:15.872Z,58.00
2022-08-07T05:56:36.547Z,57.90
2022-08-07T06:00:52.290Z,57.70
2022-08-07T06:05:15.653Z,57.40
2022-08-07T06:10:03.943Z,56.90
2022-08-07T06:14:21.300Z,57.30
2022-08-07T06:18:55.534Z,56.60
2022-08-07T06:23:46.099Z,56.60
2022-08-07T06:28:01.011Z,56.10
2022-08-07T06:32:16.015Z,55.90
2022-08-07T06:36:35.349Z,55.40
2022-08-07T06:40:54.986Z,55.00
2022-08-07T06:45:18.000Z,55.50
2022-08-07T06:49:32.316Z,55.10
2022-08-07T06:54:12.064Z,54.60
2022-08-07T06:58:28.817Z,53.60
2022-08-07T07:02:48.372Z,53.90
2022-08-07T07:07:58.345Z,54.10
2022-08-07T07:12:08.937Z,53.60
2022-08-07T07:16:44.987Z,59.60
2022-08-07T07:21:13.458Z,55.40
2022-08-07T07:26:34.176Z,49.40
2022-08-07T07:30:12.190Z,48.30
2022-08-07T07:34:35.229Z,49.70
2022-08-07T07:38:53.218Z,50.20
2022-08-07T07:43:15.168Z,50.60
2022-08-07T07:47:42.804Z,50.60
2022-08-07T07:52:10.055Z,51.20
2022-08-07T07:56:30.145Z,51.10
2022-08-07T08:00:48.699Z,50.60
2022-08-07T08:05:14.468Z,50.60
2022-08-07T08:09:30.830Z,50.00
2022-08-07T08:14:04.432Z,49.80
2022-08-07T08:18:18.672Z,49.60
2022-08-07T08:22:55.916Z,49.30
2022-08-07T08:27:14.436Z,48.90
2022-08-07T08:32:17.326Z,49.40
2022-08-07T08:36:08.568Z,48.80
2022-08-07T08:40:29.109Z,48.40
2022-08-07T08:44:49.658Z,48.20
2022-08-07T08:49:10.463Z,47.70
2022-08-07T08:53:34.578Z,47.30
2022-08-07T08:57:56.403Z,47.20
2022-08-07T09:02:19.001Z,47.80
2022-08-07T09:06:56.768Z,47.60
2022-08-07T09:11:24.981Z,47.50
2022-08-07T09:16:22.881Z,47.20
2022-08-07T09:20:58.502Z,47.10
2022-08-07T09:25:24.339Z,46.80
2022-08-07T09:30:05.065Z,46.90
2022-08-07T09:34:29.391Z,47.20
2022-08-07T09:38:53.727Z,47.30
2022-08-07T09:43:18.140Z,47.40
2022-08-07T09:47:59.987Z,48.10
2022-08-07T09:52:34.443Z,49.60
2022-08-07T09:57:16.429Z,50.10
2022-08-07T10:01:54.768Z,48.80
2022-08-07T10:06:35.640Z,46.00
2022-08-07T10:12:00.268Z,44.30
2022-08-07T10:15:47.612Z,43.40
2022-08-07T10:20:33.104Z,46.60
2022-08-07T10:25:24.302Z,43.80
2022-08-07T10:30:17.003Z,40.30
2022-08-07T10:34:45.776Z,38.60
2022-08-07T10:39:19.593Z,37.60
2022-08-07T10:43:43.263Z,36.80
2022-08-07T10:49:24.596Z,35.80
2022-08-07T10:54:37.891Z,35.40
2022-08-07T10:59:15.670Z,34.90
2022-08-07T11:04:23.115Z,35.80
2022-08-07T11:08:45.908Z,35.70
2022-08-07T11:13:06.162Z,36.40
2022-08-07T11:17:45.082Z,37.00
2022-08-07T11:22:26.696Z,36.90
2022-08-07T11:26:55.840Z,37.50
2022-08-07T11:31:21.870Z,38.10
2022-08-07T11:36:02.561Z,37.80
2022-08-07T11:40:40.426Z,37.40
2022-08-07T11:45:20.289Z,37.40
2022-08-07T11:50:30.608Z,36.60
2022-08-07T11:55:01.709Z,37.20
2022-08-07T12:00:12.506Z,37.00
2022-08-07T12:04:26.250Z,37.10
2022-08-07T12:08:45.945Z,36.70
2022-08-07T12:13:11.359Z,36.70
2022-08-07T12:17:41.607Z,36.20
2022-08-07T12:22:37.157Z,36.50
2022-08-07T12:26:58.956Z,36.30
2022-08-07T12:31:25.649Z,35.60
2022-08-07T12:36:02.417Z,35.60
2022-08-07T12:40:46.796Z,35.80
2022-08-07T12:44:56.921Z,36.10
2022-08-07T12:49:39.680Z,35.70
2022-08-07T12:54:37.253Z,35.70
2022-08-07T12:58:39.929Z,35.30
2022-08-07T13:03:09.483Z,34.80
2022-08-07T13:08:11.869Z,33.50
2022-08-07T13:12:32.914Z,32.10
2022-08-07T13:21:23.604Z,29.40
2022-08-07T13:26:00.774Z,30.00
2022-08-07T13:30:19.754Z,30.60
2022-08-07T13:34:55.352Z,31.00
2022-08-07T13:39:28.257Z,30.90
2022-08-07T13:43:56.857Z,30.60
2022-08-07T13:48:27.511Z,30.00
2022-08-07T13:52:47.027Z,29.80
2022-08-07T13:57:02.729Z,29.80
2022-08-07T14:01:22.067Z,29.80
2022-08-07T14:05:38.221Z,29.70
2022-08-07T14:10:01.279Z,29.80
2022-08-07T14:14:20.045Z,29.20
2022-08-07T14:18:42.374Z,29.00
2022-08-07T14:23:05.542Z,29.20
2022-08-07T14:32:07.993Z,28.60
2022-08-07T14:36:24.470Z,28.70
2022-08-07T14:40:38.073Z,28.80
2022-08-07T14:44:59.829Z,28.70
2022-08-07T14:49:17.267Z,27.80
2022-08-07T14:54:30.261Z,26.50
2022-08-07T14:58:30.011Z,26.20
2022-08-07T15:02:46.741Z,26.40
2022-08-07T15:07:21.452Z,27.20
2022-08-07T15:11:53.514Z,27.00
2022-08-07T15:20:56.039Z,28.80
2022-08-07T15:30:06.692Z,31.10
2022-08-07T15:34:27.693Z,32.70
2022-08-07T15:38:51.366Z,34.20
2022-08-07T15:43:53.687Z,34.00
2022-08-07T15:48:02.177Z,35.00
2022-08-07T15:52:21.784Z,35.50
2022-08-07T15:56:58.041Z,36.00
2022-08-07T16:01:20.446Z,36.70
2022-08-07T16:05:36.755Z,37.10
2022-08-07T16:09:55.424Z,37.60
2022-08-07T16:14:17.198Z,37.90
2022-08-07T16:18:59.497Z,38.40
2022-08-07T16:23:53.776Z,42.70
2022-08-07T16:30:07.438Z,39.90
2022-08-07T16:34:02.644Z,41.30
2022-08-07T16:38:17.073Z,40.60
2022-08-07T16:42:55.078Z,40.60
2022-08-07T16:47:56.525Z,40.80
2022-08-07T16:52:51.964Z,41.00
2022-08-07T16:57:06.034Z,40.30
2022-08-07T17:01:41.293Z,40.10
2022-08-07T17:06:29.825Z,41.30
2022-08-07T17:10:54.602Z,40.20
2022-08-07T17:15:21.233Z,40.70
2022-08-07T17:20:01.755Z,40.10
2022-08-07T17:24:55.370Z,39.90
2022-08-07T17:30:12.706Z,40.60
2022-08-07T17:34:18.294Z,40.10
2022-08-07T17:38:50.854Z,40.40
2022-08-07T17:43:15.036Z,42.70
2022-08-07T17:47:42.837Z,43.80
2022-08-07T17:52:03.294Z,45.20
2022-08-07T17:56:28.476Z,46.00
2022-08-07T18:00:51.812Z,46.50
2022-08-07T18:05:21.277Z,47.00
2022-08-07T18:10:04.715Z,48.60
2022-08-07T18:14:23.683Z,47.20
2022-08-07T18:21:07.958Z,47.80
2022-08-07T18:23:42.959Z,48.00
2022-08-07T18:28:35.597Z,48.20
2022-08-07T18:33:27.038Z,51.30
2022-08-07T18:38:55.690Z,52.50
2022-08-07T18:42:36.671Z,52.10
2022-08-07T18:47:01.651Z,52.70
2022-08-07T18:52:33.395Z,50.80
2022-08-07T18:56:03.260Z,51.40
2022-08-07T19:00:32.779Z,52.10
2022-08-07T19:05:09.842Z,52.40
2022-08-07T19:09:57.568Z,52.40
2022-08-07T19:14:20.218Z,52.90
2022-08-07T19:18:44.521Z,51.30
2022-08-07T19:23:18.580Z,50.10
2022-08-07T19:28:58.034Z,49.00
2022-08-07T19:32:27.742Z,48.20
2022-08-07T19:37:10.232Z,47.80
2022-08-07T19:41:44.783Z,47.10
2022-08-07T19:46:26.434Z,46.70
2022-08-07T19:50:49.818Z,46.30
2022-08-07T19:55:11.124Z,46.10
2022-08-07T19:59:40.735Z,46.20
2022-08-07T20:03:58.911Z,45.80
2022-08-07T20:08:16.946Z,45.80
2022-08-07T20:12:35.852Z,46.90
2022-08-07T20:16:54.443Z,47.20
2022-08-07T20:21:21.204Z,47.40
2022-08-07T20:25:40.499Z,47.60
2022-08-07T20:30:00.365Z,47.50
2022-08-07T20:34:34.368Z,47.80
2022-08-07T20:39:00.843Z,48.60
2022-08-07T20:43:26.633Z,49.30
2022-08-07T20:47:56.416Z,49.60
2022-08-07T20:52:21.185Z,50.00
2022-08-07T20:56:52.081Z,50.00
2022-08-07T21:01:20.034Z,50.10
2022-08-07T21:05:51.125Z,50.20
2022-08-07T21:10:11.710Z,50.30
2022-08-07T21:14:34.326Z,50.40
2022-08-07T21:18:54.386Z,50.40
2022-08-07T21:23:17.139Z,50.70
2022-08-07T21:27:53.750Z,50.90
2022-08-07T21:32:47.339Z,50.90
2022-08-07T21:37:00.016Z,50.80
2022-08-07T21:41:23.506Z,50.90
2022-08-07T21:46:10.834Z,50.90
2022-08-07T21:50:26.369Z,51.00
2022-08-07T21:54:52.945Z,51.20
2022-08-07T21:59:10.478Z,51.50
2022-08-07T22:03:37.423Z,51.40
2022-08-07T22:07:58.748Z,51.50
2022-08-07T22:12:16.401Z,51.60
2022-08-07T22:16:43.511Z,51.30
2022-08-07T22:21:02.773Z,51.40
2022-08-07T22:25:28.014Z,51.40
2022-08-07T22:29:55.636Z,51.50
2022-08-07T22:34:14.172Z,51.30
2022-08-07T22:38:37.737Z,51.40
2022-08-07T22:42:59.085Z,51.50
2022-08-07T22:47:25.851Z,51.60
2022-08-07T22:52:02.389Z,52.70
2022-08-07T22:56:20.239Z,52.50
2022-08-07T23:00:47.818Z,51.80
2022-08-07T23:06:08.351Z,52.00
2022-08-07T23:10:34.054Z,52.30
2022-08-07T23:14:59.294Z,52.80
2022-08-07T23:19:51.421Z,53.20
2022-08-07T23:24:34.401Z,53.20
2022-08-07T23:30:35.893Z,53.80
2022-08-07T23:34:39.332Z,54.10
2022-08-07T23:39:08.302Z,54.40
2022-08-07T23:43:54.663Z,54.40
2022-08-07T23:48:27.663Z,54.30
2022-08-07T23:53:15.188Z,54.20
2022-08-07T23:57:32.402Z,54.00
